Time;durP1;ratioP1;P1;durP2;ratioP2;P2;SDS_P1;SDS_P2;PMS_P1;PMS_P2;Temp;Humidity;BMP_temperature;BMP_pressure;BME280_temperature;BME280_humidity;BME280_pressure;Samples;Min_cycle;Max_cycle;Signal;HPM_P1;HPM_P2
2021/12/15 00:01:06;;;;;;;38.17;18.23;;;10.40;99.90;;;;;;5072689;28;20021;-80
2021/12/15 00:03:32;;;;;;;38.03;17.02;;;10.40;99.90;;;;;;5074318;28;20159;-78
2021/12/15 00:05:58;;;;;;;44.70;18.60;;;10.40;99.90;;;;;;5073202;28;20052;-79
2021/12/15 00:08:24;;;;;;;47.80;19.17;;;10.40;99.90;;;;;;5080150;28;20052;-79
2021/12/15 00:10:50;;;;;;;40.13;18.50;;;10.40;99.90;;;;;;5095294;28;20051;-79
2021/12/15 00:13:18;;;;;;;44.17;19.27;;;10.40;99.90;;;;;;5094753;28;20031;-80
2021/12/15 00:15:45;;;;;;;40.90;15.90;;;10.40;99.90;;;;;;5076783;28;20078;-79
2021/12/15 00:18:12;;;;;;;40.72;17.95;;;10.30;99.90;;;;;;5076837;28;20460;-79
2021/12/15 00:20:38;;;;;;;48.83;20.08;;;10.30;99.90;;;;;;5094483;28;20040;-78
2021/12/15 00:23:04;;;;;;;47.45;18.65;;;10.30;99.90;;;;;;5094537;28;20035;-78
2021/12/15 00:25:35;;;;;;;35.83;15.68;;;10.30;99.90;;;;;;5076053;28;20043;-78
2021/12/15 00:28:01;;;;;;;43.67;17.30;;;10.30;99.90;;;;;;5094774;28;20030;-79
2021/12/15 00:30:30;;;;;;;45.03;19.30;;;10.30;99.90;;;;;;5075993;28;20016;-79
2021/12/15 00:32:55;;;;;;;41.53;17.20;;;10.30;99.90;;;;;;5076077;28;20016;-79
2021/12/15 00:35:21;;;;;;;40.10;18.98;;;10.30;99.90;;;;;;5093717;28;20045;-79
2021/12/15 00:37:47;;;;;;;41.55;17.45;;;10.30;99.90;;;;;;5076425;28;20059;-78
2021/12/15 00:40:16;;;;;;;39.67;16.50;;;10.30;99.90;;;;;;5076285;28;20493;-79
2021/12/15 00:42:42;;;;;;;36.97;16.63;;;10.30;99.90;;;;;;5075845;28;20103;-78
2021/12/15 00:45:09;;;;;;;42.55;17.55;;;10.30;99.90;;;;;;5094250;28;20103;-79
2021/12/15 00:47:35;;;;;;;41.97;17.05;;;10.30;99.90;;;;;;5093499;28;20032;-79
2021/12/15 00:50:06;;;;;;;40.70;17.25;;;10.30;99.90;;;;;;5094445;28;20095;-79
2021/12/15 00:52:33;;;;;;;;;;;10.30;99.90;;;;;;5094326;28;20109;-79
2021/12/15 00:55:00;;;;;;;44.83;18.80;;;10.30;99.90;;;;;;5076017;28;20245;-79
2021/12/15 00:57:26;;;;;;;38.10;15.73;;;10.30;99.90;;;;;;5075407;28;20028;-79
2021/12/15 00:59:51;;;;;;;40.58;18.00;;;10.30;99.90;;;;;;5093923;28;20490;-78
2021/12/15 01:02:17;;;;;;;40.20;17.08;;;10.30;99.90;;;;;;5094072;28;20053;-78
2021/12/15 01:04:43;;;;;;;41.50;18.42;;;10.30;99.90;;;;;;5093117;28;20493;-78
2021/12/15 01:07:10;;;;;;;42.17;18.67;;;10.30;99.90;;;;;;5075572;28;20058;-78
2021/12/15 01:09:47;;;;;;;38.67;17.48;;;10.30;99.90;;;;;;5074877;28;20123;-78
2021/12/15 01:12:40;;;;;;;36.13;16.60;;;10.30;99.90;;;;;;5075556;28;20024;-78
2021/12/15 01:20:43;;;;;;;40.75;18.80;;;10.30;99.90;;;;;;5051347;28;20024;-78
2021/12/15 01:23:13;;;;;;;40.88;17.92;;;10.40;99.90;;;;;;5093677;28;20020;-79
2021/12/15 01:25:42;;;;;;;34.80;15.38;;;10.40;99.90;;;;;;5093020;28;20111;-79
2021/12/15 01:28:09;;;;;;;42.47;17.42;;;10.40;99.90;;;;;;5093915;28;20103;-78
2021/12/15 01:30:40;;;;;;;40.20;17.65;;;10.30;99.90;;;;;;5092993;28;20073;-79
2021/12/15 01:33:06;;;;;;;38.65;17.13;;;10.40;99.90;;;;;;5093534;28;20020;-79
2021/12/15 01:35:36;;;;;;;41.80;17.88;;;10.40;99.90;;;;;;5092658;28;20043;-78
2021/12/15 01:38:02;;;;;;;44.00;16.55;;;10.40;99.90;;;;;;5075204;28;20055;-78
2021/12/15 01:40:35;;;;;;;33.70;13.95;;;10.40;99.90;;;;;;5093441;28;20024;-79
2021/12/15 01:43:20;;;;;;;40.03;16.98;;;10.40;99.90;;;;;;5077831;28;20024;-78
2021/12/15 01:48:36;;;;;;;45.65;16.08;;;10.40;99.90;;;;;;5092893;28;20106;-79
2021/12/15 01:51:04;;;;;;;48.45;18.20;;;10.50;99.90;;;;;;5092850;28;20063;-78
2021/12/15 01:53:30;;;;;;;47.35;18.45;;;10.40;99.90;;;;;;5074428;28;20016;-79
2021/12/15 01:55:56;;;;;;;44.42;17.02;;;10.40;99.90;;;;;;5074776;28;20024;-78
2021/12/15 01:58:22;;;;;;;44.30;17.63;;;10.40;99.90;;;;;;5092761;28;20024;-78
2021/12/15 02:00:52;;;;;;;41.88;16.30;;;10.40;99.90;;;;;;5074321;28;20020;-78
2021/12/15 02:03:18;;;;;;;41.10;16.60;;;10.40;99.90;;;;;;5093184;28;20027;-79
2021/12/15 02:05:44;;;;;;;52.78;21.48;;;10.40;99.90;;;;;;5074156;28;20166;-79
2021/12/15 02:08:12;;;;;;;50.15;20.25;;;10.30;99.90;;;;;;5074482;28;20107;-78
2021/12/15 02:10:40;;;;;;;47.13;19.00;;;10.30;99.90;;;;;;5092418;28;20043;-79
2021/12/15 02:13:09;;;;;;;49.92;18.58;;;10.30;99.90;;;;;;5074718;28;20508;-78
2021/12/15 02:15:40;;;;;;;49.50;20.20;;;10.30;99.90;;;;;;5092277;28;20032;-79
2021/12/15 02:18:08;;;;;;;49.83;18.37;;;10.30;99.90;;;;;;5074764;28;20027;-77
2021/12/15 02:20:40;;;;;;;43.63;18.27;;;10.30;99.90;;;;;;5092185;28;20097;-78
2021/12/15 02:23:08;;;;;;;43.88;17.98;;;10.30;99.90;;;;;;5092695;28;20031;-78
2021/12/15 02:25:34;;;;;;;47.13;17.75;;;10.30;99.90;;;;;;5091393;28;20031;-79
2021/12/15 02:28:02;;;;;;;42.03;17.83;;;10.30;99.90;;;;;;5092642;28;20312;-78
2021/12/15 02:30:55;;;;;;;45.35;18.40;;;10.40;99.90;;;;;;5074080;28;20020;-79
2021/12/15 02:38:41;;;;;;;45.25;20.55;;;10.30;99.90;;;;;;5092264;28;20078;-78
2021/12/15 02:41:13;;;;;;;43.15;18.30;;;10.30;99.90;;;;;;5092883;28;20077;-78
2021/12/15 02:43:39;;;;;;;48.80;19.98;;;10.30;99.90;;;;;;5091822;28;20522;-79
2021/12/15 02:46:07;;;;;;;45.85;17.50;;;10.30;99.90;;;;;;5092283;28;20032;-78
2021/12/15 02:48:33;;;;;;;42.63;18.67;;;10.30;99.90;;;;;;5092085;28;20025;-79
2021/12/15 02:50:59;;;;;;;42.30;16.73;;;10.30;99.90;;;;;;5092785;28;20028;-78
2021/12/15 02:53:25;;;;;;;43.03;17.67;;;10.30;99.90;;;;;;5092381;28;20028;-79
2021/12/15 02:55:52;;;;;;;45.67;18.98;;;10.30;99.90;;;;;;5073848;28;20107;-79
2021/12/15 02:58:20;;;;;;;42.88;16.67;;;10.30;99.90;;;;;;5074188;28;20422;-80
2021/12/15 03:00:56;;;;;;;41.05;16.55;;;10.30;99.90;;;;;;5091759;28;20397;-78
2021/12/15 03:06:16;;;;;;;36.40;14.73;;;10.30;99.90;;;;;;5092414;28;20066;-78
2021/12/15 03:08:56;;;;;;;42.72;16.80;;;10.30;99.90;;;;;;5073313;28;20542;-79
2021/12/15 03:16:54;;;;;;;39.85;14.98;;;10.30;99.90;;;;;;5092588;28;20384;-78
2021/12/15 03:19:20;;;;;;;44.58;18.08;;;10.30;99.90;;;;;;5092112;28;20024;-78
2021/12/15 03:21:46;;;;;;;46.97;17.52;;;10.30;99.90;;;;;;5073351;28;20021;-79
2021/12/15 03:24:18;;;;;;;37.85;16.45;;;10.40;99.90;;;;;;5073766;28;20028;-79
2021/12/15 03:26:55;;;;;;;36.67;15.23;;;10.40;99.90;;;;;;5091738;28;20115;-79
2021/12/15 03:37:28;;;;;;;43.13;17.35;;;10.40;99.90;;;;;;5095413;28;20042;-78
2021/12/15 03:40:08;;;;;;;38.15;15.73;;;10.40;99.90;;;;;;5095166;28;20020;-79
2021/12/15 03:42:46;;;;;;;34.03;15.05;;;10.40;99.90;;;;;;5094874;28;20461;-79
2021/12/15 03:45:17;;;;;;;41.67;15.98;;;10.40;99.90;;;;;;5095636;28;20024;-79
2021/12/15 03:47:47;;;;;;;40.33;17.20;;;10.40;99.90;;;;;;5076863;28;20352;-79
2021/12/15 03:50:16;;;;;;;39.53;17.10;;;10.40;99.90;;;;;;5095364;28;20473;-78
2021/12/15 03:52:42;;;;;;;39.75;17.50;;;10.40;99.90;;;;;;5094997;28;20059;-79
2021/12/15 03:55:09;;;;;;;41.97;18.63;;;10.40;99.90;;;;;;5077284;28;20024;-79
2021/12/15 03:57:35;;;;;;;40.88;16.85;;;10.40;99.90;;;;;;5095101;28;20036;-79
2021/12/15 04:00:07;;;;;;;38.42;16.38;;;10.40;99.90;;;;;;5095246;28;20028;-79
2021/12/15 04:02:33;;;;;;;46.63;18.45;;;10.40;99.90;;;;;;5094820;28;20016;-79
2021/12/15 04:04:58;;;;;;;41.97;16.73;;;10.40;99.90;;;;;;5095490;28;20474;-79
2021/12/15 04:07:24;;;;;;;41.55;15.93;;;10.40;99.90;;;;;;5076861;28;20028;-78
2021/12/15 04:09:52;;;;;;;39.75;16.67;;;10.40;99.90;;;;;;5094195;28;20044;-79
2021/12/15 04:12:18;;;;;;;43.33;16.83;;;10.40;99.90;;;;;;5076860;28;20024;-79
2021/12/15 04:14:46;;;;;;;40.03;15.48;;;10.40;99.90;;;;;;5094330;28;20031;-79
2021/12/15 04:17:30;;;;;;;35.35;13.38;;;10.40;99.90;;;;;;5076692;28;20028;-79
2021/12/15 04:20:07;;;;;;;36.85;14.82;;;10.40;99.90;;;;;;5076153;28;20113;-78
2021/12/15 04:22:32;;;;;;;38.72;16.70;;;10.40;99.90;;;;;;5095183;28;20038;-79
2021/12/15 04:24:58;;;;;;;38.42;15.82;;;10.40;99.90;;;;;;5094551;28;20028;-78
2021/12/15 04:27:24;;;;;;;40.58;16.45;;;10.40;99.90;;;;;;5094539;28;20430;-79
2021/12/15 04:29:52;;;;;;;38.45;16.02;;;10.40;99.90;;;;;;5094074;28;20380;-79
2021/12/15 04:32:39;;;;;;;37.75;16.83;;;10.40;99.90;;;;;;5094704;28;20027;-78
2021/12/15 04:35:05;;;;;;;39.70;16.67;;;10.40;99.90;;;;;;5076852;28;20027;-78
2021/12/15 04:37:31;;;;;;;35.70;15.77;;;10.40;99.90;;;;;;5094763;28;20129;-78
2021/12/15 04:39:57;;;;;;;40.70;15.35;;;10.40;99.90;;;;;;5093869;28;20055;-78
2021/12/15 04:42:25;;;;;;;40.40;15.38;;;10.40;99.90;;;;;;5094641;28;20487;-78
2021/12/15 04:44:52;;;;;;;32.53;13.00;;;10.40;99.90;;;;;;5075722;28;20477;-79
2021/12/15 04:47:18;;;;;;;40.38;17.52;;;10.40;99.90;;;;;;5075435;28;20467;-79
2021/12/15 04:49:50;;;;;;;42.25;17.13;;;10.40;99.90;;;;;;5075729;28;20020;-79
2021/12/15 04:52:18;;;;;;;41.88;17.48;;;10.40;99.90;;;;;;5094624;28;20024;-79
2021/12/15 04:54:44;;;;;;;40.03;16.80;;;10.40;99.90;;;;;;5093856;28;20017;-79
2021/12/15 04:57:12;;;;;;;38.92;15.88;;;10.40;99.90;;;;;;5094008;28;20032;-79
2021/12/15 04:59:38;;;;;;;39.80;16.08;;;10.40;99.90;;;;;;5093671;28;20020;-79
2021/12/15 05:02:06;;;;;;;45.20;17.48;;;10.40;99.90;;;;;;5075819;28;20032;-78
2021/12/15 05:04:32;;;;;;;42.47;16.83;;;10.40;99.90;;;;;;5093646;28;20036;-79
2021/12/15 05:06:58;;;;;;;43.80;18.80;;;10.40;99.90;;;;;;5075216;28;20110;-78
2021/12/15 05:09:24;;;;;;;41.38;17.85;;;10.30;99.90;;;;;;5075280;28;20044;-78
2021/12/15 05:11:50;;;;;;;49.45;20.10;;;10.30;99.90;;;;;;5093431;28;20103;-78
2021/12/15 05:14:18;;;;;;;42.38;17.92;;;10.30;99.90;;;;;;5093758;28;20474;-78
2021/12/15 05:16:44;;;;;;;45.05;17.77;;;10.30;99.90;;;;;;5074676;28;20028;-79
2021/12/15 05:19:10;;;;;;;46.33;18.48;;;10.30;99.90;;;;;;5075367;28;20077;-79
2021/12/15 05:21:36;;;;;;;40.13;16.23;;;10.30;99.90;;;;;;5075439;28;20024;-79
2021/12/15 05:24:12;;;;;;;44.90;16.45;;;10.30;99.90;;;;;;5093005;28;20093;-79
2021/12/15 05:26:38;;;;;;;41.45;17.80;;;10.30;99.90;;;;;;5075189;28;20082;-81
2021/12/15 05:29:03;;;;;;;44.40;19.10;;;10.30;99.90;;;;;;5093651;28;20028;-79
2021/12/15 05:31:29;;;;;;;39.40;16.63;;;10.30;99.90;;;;;;5093621;28;20460;-79
2021/12/15 05:33:55;;;;;;;41.95;15.90;;;10.30;99.90;;;;;;5090073;28;20028;-79
2021/12/15 05:36:21;;;;;;;38.08;15.90;;;10.40;99.90;;;;;;5074095;28;20028;-79
2021/12/15 05:38:46;;;;;;;47.03;16.80;;;10.40;99.90;;;;;;5092385;28;20513;-80
2021/12/15 05:41:12;;;;;;;36.17;17.23;;;10.40;99.90;;;;;;5074593;28;20020;-79
2021/12/15 05:43:38;;;;;;;37.20;14.85;;;10.50;99.90;;;;;;5074323;28;20095;-79
2021/12/15 05:46:04;;;;;;;40.50;17.00;;;10.50;99.90;;;;;;5092060;28;20388;-80
2021/12/15 05:48:29;;;;;;;44.25;17.67;;;10.40;99.90;;;;;;5093512;28;20037;-80
2021/12/15 05:50:55;;;;;;;42.47;16.65;;;10.40;99.90;;;;;;5074665;28;20463;-79
2021/12/15 05:53:22;;;;;;;43.40;16.73;;;10.40;99.90;;;;;;5093638;28;20028;-79
2021/12/15 05:55:48;;;;;;;45.47;17.58;;;10.50;99.90;;;;;;5092027;28;20361;-80
2021/12/15 05:58:14;;;;;;;36.53;14.98;;;10.40;99.90;;;;;;5074933;28;20027;-79
2021/12/15 06:00:42;;;;;;;36.58;16.33;;;10.50;99.90;;;;;;5074445;28;20024;-79
2021/12/15 06:03:08;;;;;;;37.08;14.95;;;10.50;99.90;;;;;;5093122;28;20156;-79
2021/12/15 06:05:35;;;;;;;37.47;15.65;;;10.50;99.90;;;;;;5092727;28;20030;-75
2021/12/15 06:08:01;;;;;;;38.15;15.60;;;10.50;99.90;;;;;;5074158;28;20403;-76
2021/12/15 06:10:29;;;;;;;40.83;16.85;;;10.50;99.90;;;;;;5092275;28;20498;-76
2021/12/15 06:12:56;;;;;;;37.33;16.17;;;10.60;99.90;;;;;;5092067;28;20024;-76
2021/12/15 06:15:25;;;;;;;31.45;12.85;;;10.60;99.90;;;;;;5074458;28;20035;-76
2021/12/15 06:17:53;;;;;;;35.25;13.93;;;10.60;99.90;;;;;;5091908;28;20028;-76
2021/12/15 06:20:19;;;;;;;40.90;16.13;;;10.60;99.90;;;;;;5092337;28;20157;-76
2021/12/15 06:22:46;;;;;;;38.78;15.45;;;10.60;99.90;;;;;;5091880;28;20434;-78
2021/12/15 06:25:13;;;;;;;36.80;15.02;;;10.60;99.90;;;;;;5092195;28;20456;-76
2021/12/15 06:27:40;;;;;;;44.40;16.50;;;10.60;99.90;;;;;;5091949;28;20035;-76
2021/12/15 06:30:07;;;;;;;44.78;17.95;;;10.60;99.90;;;;;;5073528;28;20376;-76
2021/12/15 06:32:34;;;;;;;46.78;17.70;;;10.60;99.90;;;;;;5092528;28;20020;-76
2021/12/15 06:35:00;;;;;;;41.10;16.50;;;10.60;99.90;;;;;;5073787;28;20035;-76
2021/12/15 06:37:26;;;;;;;39.10;16.77;;;10.60;99.90;;;;;;5074016;28;20028;-76
2021/12/15 06:39:52;;;;;;;47.22;18.48;;;10.60;99.90;;;;;;5091517;28;20050;-76
2021/12/15 06:42:17;;;;;;;41.10;17.02;;;10.50;99.90;;;;;;5074107;28;20434;-76
2021/12/15 06:44:44;;;;;;;45.95;18.05;;;10.60;99.90;;;;;;5092490;28;20329;-76
2021/12/15 06:58:12;;;;;;;40.50;15.80;;;10.60;99.90;;;;;;5091631;28;20028;-75
2021/12/15 07:00:41;;;;;;;;;;;10.60;99.90;;;;;;5092584;28;20025;-75
2021/12/15 07:03:07;;;;;;;43.30;16.52;;;10.60;99.90;;;;;;5091667;28;20363;-75
2021/12/15 07:05:34;;;;;;;42.90;16.67;;;10.60;99.90;;;;;;5091960;28;20069;-75
2021/12/15 07:08:03;;;;;;;42.67;18.00;;;10.60;99.90;;;;;;5091604;28;20168;-75
2021/12/15 07:10:31;;;;;;;40.83;16.02;;;10.60;99.90;;;;;;5092655;28;20123;-75
2021/12/15 07:12:58;;;;;;;39.83;16.02;;;10.60;99.90;;;;;;5077230;28;20020;-75
2021/12/15 07:15:24;;;;;;;31.10;13.45;;;10.60;99.90;;;;;;5077647;28;20043;-75
2021/12/15 07:17:53;;;;;;;42.13;15.77;;;10.60;99.90;;;;;;5095435;28;20026;-75
2021/12/15 07:20:40;;;;;;;37.33;15.88;;;10.60;99.90;;;;;;5095961;28;20028;-75
2021/12/15 07:23:10;;;;;;;47.67;17.65;;;10.60;99.90;;;;;;5095412;28;20054;-75
2021/12/15 07:25:37;;;;;;;34.03;14.63;;;10.60;99.90;;;;;;5077637;28;20023;-75
2021/12/15 07:28:04;;;;;;;44.28;16.42;;;10.60;99.90;;;;;;5095174;28;20470;-76
2021/12/15 07:30:31;;;;;;;51.00;17.88;;;10.60;99.90;;;;;;5077356;28;20106;-75
2021/12/15 07:32:58;;;;;;;36.00;13.90;;;10.60;99.90;;;;;;5095145;28;20028;-76
2021/12/15 07:35:24;;;;;;;53.42;19.10;;;10.60;99.90;;;;;;5095855;28;20503;-76
2021/12/15 07:37:50;;;;;;;46.45;17.08;;;10.60;99.90;;;;;;5095091;28;20024;-77
2021/12/15 07:40:20;;;;;;;45.00;15.63;;;10.60;99.90;;;;;;5077210;28;20024;-75
2021/12/15 07:45:23;;;;;;;39.38;15.00;;;10.60;99.90;;;;;;5095443;28;20039;-75
2021/12/15 07:47:54;;;;;;;37.97;14.82;;;10.60;99.90;;;;;;5076596;28;20032;-76
2021/12/15 07:50:21;;;;;;;45.05;15.88;;;10.70;99.90;;;;;;5095519;28;20109;-75
2021/12/15 07:52:49;;;;;;;45.78;16.90;;;10.60;99.90;;;;;;5077254;28;20447;-75
2021/12/15 07:55:15;;;;;;;48.78;16.85;;;10.60;99.90;;;;;;5077395;28;20392;-75
2021/12/15 07:57:41;;;;;;;41.88;14.88;;;10.60;99.90;;;;;;5077106;28;20093;-76
2021/12/15 08:00:09;;;;;;;47.15;16.80;;;10.60;99.90;;;;;;5076442;28;20414;-76
2021/12/15 08:02:35;;;;;;;49.58;18.20;;;10.60;99.90;;;;;;5094884;28;20448;-76
2021/12/15 08:05:01;;;;;;;48.72;16.92;;;10.60;99.90;;;;;;5076422;28;20070;-76
2021/12/15 08:07:27;;;;;;;43.80;15.82;;;10.60;99.90;;;;;;5076578;28;20036;-75
2021/12/15 08:09:52;;;;;;;51.75;17.35;;;10.60;99.90;;;;;;5093937;28;20048;-76
2021/12/15 08:12:18;;;;;;;37.67;15.85;;;10.60;99.90;;;;;;5095019;28;20395;-75
2021/12/15 08:14:44;;;;;;;51.72;17.50;;;10.60;99.90;;;;;;5094616;28;20055;-76
2021/12/15 08:17:10;;;;;;;47.30;15.93;;;10.60;99.90;;;;;;5076086;28;20320;-75
2021/12/15 08:19:36;;;;;;;42.17;15.60;;;10.50;99.90;;;;;;5094453;28;20028;-75
2021/12/15 08:22:01;;;;;;;50.70;17.45;;;10.60;99.90;;;;;;5093153;28;20066;-75
2021/12/15 08:24:27;;;;;;;58.28;20.17;;;10.60;99.90;;;;;;5094404;28;20039;-75
2021/12/15 08:26:53;;;;;;;58.67;20.45;;;10.60;99.90;;;;;;5093870;28;20028;-76
2021/12/15 08:29:18;;;;;;;49.17;16.50;;;10.60;99.90;;;;;;5094319;28;20603;-76
2021/12/15 08:31:44;;;;;;;53.97;18.42;;;10.60;99.90;;;;;;5094518;28;20448;-75
2021/12/15 08:34:10;;;;;;;47.25;19.13;;;10.60;99.90;;;;;;5075518;28;20437;-76
2021/12/15 08:36:38;;;;;;;45.22;17.23;;;10.60;99.90;;;;;;5094375;28;20372;-75
2021/12/15 08:39:05;;;;;;;50.17;17.52;;;10.70;99.90;;;;;;5093586;28;20025;-75
2021/12/15 08:41:31;;;;;;;60.88;20.60;;;10.70;99.90;;;;;;5094062;28;20336;-76
2021/12/15 08:43:58;;;;;;;60.88;20.95;;;10.70;99.90;;;;;;5075658;28;20031;-76
2021/12/15 08:46:38;;;;;;;53.17;19.10;;;10.70;99.90;;;;;;5094098;28;20475;-76
2021/12/15 08:49:05;;;;;;;52.25;17.58;;;10.70;99.90;;;;;;5075628;28;20024;-76
2021/12/15 08:51:31;;;;;;;48.83;16.58;;;10.70;99.90;;;;;;5075811;28;20483;-75
2021/12/15 08:54:02;;;;;;;49.15;17.23;;;10.70;99.90;;;;;;5093636;28;20044;-76
2021/12/15 08:56:29;;;;;;;53.88;19.40;;;10.70;99.90;;;;;;5076012;28;20081;-75
2021/12/15 08:58:55;;;;;;;42.22;17.58;;;10.70;99.90;;;;;;5093346;28;20020;-76
2021/12/15 09:01:21;;;;;;;52.75;17.10;;;10.70;99.90;;;;;;5075697;28;20387;-76
2021/12/15 09:03:46;;;;;;;53.97;18.52;;;10.80;99.90;;;;;;5075290;28;20020;-76
2021/12/15 09:06:14;;;;;;;51.53;20.27;;;10.80;99.90;;;;;;5093679;28;20046;-75
2021/12/15 09:08:42;;;;;;;46.92;18.25;;;10.80;99.90;;;;;;5093597;28;20476;-75
2021/12/15 09:11:13;;;;;;;47.58;17.65;;;10.70;99.90;;;;;;5075116;28;20376;-75
2021/12/15 09:13:39;;;;;;;45.13;16.20;;;10.80;99.90;;;;;;5093981;28;20055;-75
2021/12/15 09:16:08;;;;;;;50.00;17.40;;;10.80;99.90;;;;;;5075206;28;20085;-75
2021/12/15 09:18:37;;;;;;;47.78;15.40;;;10.80;99.90;;;;;;5093326;28;20024;-76
2021/12/15 09:21:05;;;;;;;51.72;17.90;;;10.90;99.90;;;;;;5092795;28;20549;-76
2021/12/15 09:23:31;;;;;;;51.92;18.25;;;10.90;99.90;;;;;;5075310;28;20471;-76
2021/12/15 09:25:57;;;;;;;53.05;18.65;;;10.80;99.90;;;;;;5092634;28;20031;-76
2021/12/15 09:28:25;;;;;;;58.28;19.60;;;10.80;99.90;;;;;;5093377;28;20411;-76
2021/12/15 09:30:52;;;;;;;54.92;19.05;;;10.80;99.90;;;;;;5093312;28;20021;-75
2021/12/15 09:33:22;;;;;;;55.65;19.35;;;10.80;99.90;;;;;;5092895;28;20020;-75
2021/12/15 09:35:48;;;;;;;61.63;19.95;;;10.80;99.90;;;;;;5074959;28;20024;-75
2021/12/15 09:38:16;;;;;;;53.20;18.25;;;10.80;99.90;;;;;;5092548;28;20031;-77
2021/12/15 09:40:43;;;;;;;56.15;19.95;;;10.80;99.90;;;;;;5074931;28;20051;-77
2021/12/15 09:43:11;;;;;;;43.35;16.83;;;10.80;99.90;;;;;;5092744;28;20031;-77
2021/12/15 09:45:54;;;;;;;51.97;18.20;;;10.90;99.90;;;;;;5093368;28;20113;-77
2021/12/15 10:04:42;;;;;;;54.95;19.90;;;11.00;99.90;;;;;;5092399;28;20541;-77
2021/12/15 10:10:36;;;;;;;57.45;19.38;;;11.00;99.90;;;;;;5074132;28;20131;-77
2021/12/15 10:21:03;;;;;;;57.88;19.40;;;11.00;99.90;;;;;;5092025;28;20032;-76
2021/12/15 10:23:36;;;;;;;59.85;21.20;;;11.00;99.90;;;;;;5092303;28;20035;-77
2021/12/15 10:26:03;;;;;;;54.38;19.55;;;11.00;99.90;;;;;;5073587;28;20115;-77
2021/12/15 10:28:31;;;;;;;46.15;17.08;;;11.00;99.90;;;;;;5092225;28;20483;-77
2021/12/15 10:31:01;;;;;;;48.80;16.08;;;11.10;99.90;;;;;;5074346;28;20016;-77
2021/12/15 10:33:39;;;;;;;51.03;17.77;;;11.10;99.90;;;;;;5074156;28;20028;-76
2021/12/15 10:36:12;;;;;;;42.03;16.98;;;11.20;99.90;;;;;;5073764;28;20024;-76
2021/12/15 10:38:44;;;;;;;54.13;18.75;;;11.20;99.90;;;;;;5073930;28;20027;-76
2021/12/15 10:41:18;;;;;;;57.05;21.17;;;11.20;99.90;;;;;;5091829;28;20525;-76
2021/12/15 10:43:58;;;;;;;61.58;22.67;;;11.20;99.90;;;;;;5074006;28;20016;-76
2021/12/15 10:46:33;;;;;;;45.70;17.00;;;11.20;99.90;;;;;;5093577;28;20054;-76
2021/12/15 10:49:11;;;;;;;57.05;19.67;;;11.20;99.90;;;;;;5096533;28;20024;-76
2021/12/15 10:51:48;;;;;;;48.75;19.25;;;11.20;99.90;;;;;;5078452;28;20024;-76
2021/12/15 10:54:31;;;;;;;56.67;19.60;;;11.20;99.90;;;;;;5095908;28;20479;-76
2021/12/15 10:57:22;;;;;;;48.38;18.77;;;11.20;99.90;;;;;;5078167;28;20030;-76
2021/12/15 10:59:52;;;;;;;49.67;18.60;;;11.20;99.90;;;;;;5073983;28;20028;-76
2021/12/15 11:02:28;;;;;;;48.47;17.73;;;11.30;99.90;;;;;;5095339;28;20035;-75
2021/12/15 11:04:56;;;;;;;46.88;19.65;;;11.30;99.90;;;;;;5077980;28;20079;-75
2021/12/15 11:07:31;;;;;;;47.67;19.58;;;11.40;99.90;;;;;;5095482;28;20348;-76
2021/12/15 11:10:06;;;;;;;44.70;17.10;;;11.40;99.90;;;;;;5077331;28;20055;-75
2021/12/15 11:12:33;;;;;;;43.97;18.33;;;11.50;99.90;;;;;;5077499;28;20039;-75
2021/12/15 11:15:14;;;;;;;42.72;17.55;;;11.50;99.90;;;;;;5096072;28;20023;-75
2021/12/15 11:17:46;;;;;;;41.50;16.83;;;11.50;99.90;;;;;;5077735;28;20042;-76
2021/12/15 11:20:37;;;;;;;45.50;19.20;;;11.40;99.90;;;;;;5095156;28;20494;-76
2021/12/15 11:23:11;;;;;;;45.60;18.77;;;11.50;99.90;;;;;;5076381;28;20040;-75
2021/12/15 11:25:45;;;;;;;43.97;18.08;;;11.50;99.90;;;;;;5077410;28;20467;-76
2021/12/15 11:28:22;;;;;;;39.40;16.92;;;11.50;99.90;;;;;;5077123;28;20079;-75
2021/12/15 11:31:00;;;;;;;45.08;17.17;;;11.50;99.90;;;;;;5077250;28;20032;-76
2021/12/15 11:33:32;;;;;;;45.05;18.80;;;11.50;99.90;;;;;;5076881;28;20024;-75
2021/12/15 11:36:07;;;;;;;45.10;16.80;;;11.60;99.90;;;;;;5077329;28;20031;-75
2021/12/15 11:38:40;;;;;;;38.53;16.65;;;11.50;99.90;;;;;;5095521;28;20356;-75
2021/12/15 11:41:13;;;;;;;46.33;18.88;;;11.60;99.90;;;;;;5094995;28;20020;-76
2021/12/15 11:43:47;;;;;;;40.22;17.85;;;11.60;99.90;;;;;;5077327;28;20349;-75
2021/12/15 11:46:22;;;;;;;46.05;18.83;;;11.60;99.90;;;;;;5076272;28;20074;-76
2021/12/15 11:48:56;;;;;;;42.78;17.60;;;11.60;99.90;;;;;;5095236;28;20368;-75
2021/12/15 11:51:40;;;;;;;49.35;19.17;;;11.60;99.90;;;;;;5094655;28;20383;-76
2021/12/15 11:54:26;;;;;;;43.08;18.02;;;11.70;99.90;;;;;;5076652;28;20127;-76
2021/12/15 11:57:00;;;;;;;40.72;16.95;;;11.70;99.90;;;;;;5076149;28;20020;-75
2021/12/15 11:59:30;;;;;;;42.72;17.95;;;11.70;99.90;;;;;;5076450;28;20674;-76
2021/12/15 12:02:19;;;;;;;44.15;18.45;;;11.70;99.90;;;;;;5076850;28;20424;-76
2021/12/15 12:04:47;;;;;;;41.20;18.88;;;11.60;99.90;;;;;;5083832;28;20115;-76
2021/12/15 12:07:46;;;;;;;46.50;20.52;;;11.60;99.90;;;;;;5076081;28;20110;-76
2021/12/15 12:10:42;;;;;;;43.50;19.00;;;11.60;99.90;;;;;;5029279;28;20052;-76
2021/12/15 12:13:14;;;;;;;41.65;18.08;;;11.50;99.90;;;;;;5074280;28;20032;-76
2021/12/15 12:15:44;;;;;;;36.33;15.60;;;11.50;99.90;;;;;;5074496;28;20124;-75
2021/12/15 12:18:13;;;;;;;40.28;16.98;;;11.50;99.90;;;;;;5073871;28;20166;-75
2021/12/15 12:20:49;;;;;;;33.72;15.18;;;11.60;99.90;;;;;;5074621;28;20017;-75
2021/12/15 12:23:19;;;;;;;35.58;15.98;;;11.60;99.90;;;;;;5072934;28;20108;-76
2021/12/15 12:25:49;;;;;;;33.40;15.55;;;11.50;99.90;;;;;;5074334;28;20020;-76
2021/12/15 12:28:21;;;;;;;40.67;18.00;;;11.60;99.90;;;;;;5073919;28;20130;-76
2021/12/15 12:30:53;;;;;;;35.67;16.73;;;11.60;99.90;;;;;;5074570;28;20041;-76
2021/12/15 12:33:21;;;;;;;37.58;16.10;;;11.50;99.90;;;;;;5072329;28;20028;-76
2021/12/15 12:35:55;;;;;;;36.17;15.55;;;11.60;99.90;;;;;;5074255;28;20116;-76
2021/12/15 12:38:25;;;;;;;32.92;15.57;;;11.70;99.90;;;;;;5072323;28;20373;-77
2021/12/15 12:41:00;;;;;;;30.60;13.90;;;11.70;99.90;;;;;;5072905;28;20031;-76
2021/12/15 12:43:27;;;;;;;33.35;15.27;;;11.70;99.90;;;;;;5072305;28;20029;-75
2021/12/15 12:46:05;;;;;;;34.80;15.95;;;11.80;99.90;;;;;;5073913;28;20082;-77
2021/12/15 12:48:52;;;;;;;32.63;16.25;;;11.80;99.90;;;;;;5073540;28;20025;-75
2021/12/15 13:00:18;;;;;;;29.60;14.43;;;11.80;99.90;;;;;;5073888;28;20452;-75
2021/12/15 13:02:47;;;;;;;39.13;16.85;;;11.80;99.90;;;;;;5072261;28;20021;-76
2021/12/15 13:05:46;;;;;;;34.45;15.38;;;11.80;99.90;;;;;;5071577;28;20025;-75
2021/12/15 13:08:36;;;;;;;27.55;14.68;;;11.80;99.90;;;;;;5072591;28;20124;-75
2021/12/15 13:11:16;;;;;;;39.17;16.05;;;11.80;99.90;;;;;;5072001;28;20392;-77
2021/12/15 13:14:04;;;;;;;29.27;14.60;;;11.80;99.90;;;;;;5072237;28;20384;-76
2021/12/15 13:16:50;;;;;;;29.88;14.65;;;11.80;99.90;;;;;;5071673;28;20028;-75
2021/12/15 13:19:18;;;;;;;27.20;13.02;;;11.80;99.90;;;;;;5071795;28;20020;-74
2021/12/15 13:21:57;;;;;;;30.33;14.77;;;11.80;99.90;;;;;;5073263;28;20518;-77
2021/12/15 13:30:57;;;;;;;21.02;12.18;;;11.80;99.90;;;;;;5073427;28;20036;-78
2021/12/15 13:33:32;;;;;;;23.45;11.93;;;11.80;99.90;;;;;;5071467;28;20029;-77
2021/12/15 13:36:21;;;;;;;26.45;13.48;;;11.80;99.90;;;;;;5071838;28;20032;-76
2021/12/15 13:39:02;;;;;;;24.20;11.98;;;11.80;99.90;;;;;;5071398;28;20028;-77
2021/12/15 13:41:41;;;;;;;26.75;11.63;;;11.80;99.90;;;;;;5072485;28;20032;-77
2021/12/15 13:44:21;;;;;;;24.70;12.80;;;11.80;99.90;;;;;;5071738;28;20074;-76
2021/12/15 13:46:49;;;;;;;25.77;11.88;;;11.80;99.90;;;;;;5070925;28;20461;-77
2021/12/15 13:49:31;;;;;;;28.40;11.80;;;11.80;99.90;;;;;;5070971;28;20381;-77
2021/12/15 13:52:05;;;;;;;25.15;12.38;;;11.80;99.90;;;;;;5071480;28;20023;-76
2021/12/15 13:54:35;;;;;;;25.40;12.48;;;11.80;99.90;;;;;;5072407;28;20076;-76
2021/12/15 13:57:13;;;;;;;22.50;11.18;;;11.80;99.90;;;;;;5072603;28;20052;-76
2021/12/15 13:59:50;;;;;;;28.75;13.65;;;11.80;99.90;;;;;;5070885;28;20026;-76
2021/12/15 14:02:35;;;;;;;23.75;11.35;;;11.80;99.90;;;;;;5070870;28;20092;-76
2021/12/15 14:05:07;;;;;;;21.92;10.30;;;11.80;99.90;;;;;;5072232;28;20020;-76
2021/12/15 14:07:44;;;;;;;19.33;9.77;;;11.80;99.90;;;;;;5070525;28;20038;-78
2021/12/15 14:10:10;;;;;;;20.33;10.02;;;11.70;99.90;;;;;;5084847;28;20055;-77